Orofino, ID

5:16 PM PST on December 20, 2014 (GMT -0800)
Elk River | Change Station
CLOSE
Current Station
Personal Weather Station
Location: Elk River, ID
Elevation: 2846 ft
Nearby Weather Stations

Elev 2846 ft 46.78 °N, 116.18 °W | Updated 1 minute ago

Rain
Rain
37.2 °F
Feels Like 37 °F
N
0.0
Wind Variable Wind from SSE
Gusts 2.0 mph

Today
High -- | Low -- °F
--% Chance of Precip.
Yesterday
High -- | Low -- °F
Precip. -- in
7:24 AM 3:59 PM
Waning Crescent, 1% visible
Pressure 29.75 in
Visibility 7.0 miles
Clouds Mostly Cloudy 3700 ft
Overcast 4700 ft
Windchill 37 °F
Dew Point 37 °F
Humidity 99%
Rainfall 0.29 in
Snow Depth Not available.
UV 0 out of 12
Pollen .10 out of 12
Air Quality Not available.
Flu Activity Not available.
METAR KGIC 210055Z AUTO 20021G29KT 7SM BKN037 OVC047 05/01 A2975 RMK AO1 T00510010

More Conditions Fewer Conditions

Pressure 29.75 in
Visibility 7.0 miles
Clouds Mostly Cloudy 3700 ft
Overcast 4700 ft
Windchill 37 °F
Dew Point 37 °F
Humidity 99%
Rainfall 0.29 in
Snow Depth Not available.
UV 0 out of 12
Pollen .10 out of 12
Air Quality Not available.
Flu Activity Not available.
METAR KGIC 210055Z AUTO 20021G29KT 7SM BKN037 OVC047 05/01 A2975 RMK AO1 T00510010

More Conditions Fewer Conditions

10-Day Weather Forecast

Almanac

Astronomy

Dec. 20, 2014 Rise Set
Actual Time
Civil Twilight
Nautical Twilight
Astronomical Twilight
Moon
Length of Visible Light
Length of Day
Tomorrow will be .
, % of the Moon is Illuminated

Today's Extremes

State Highs State Lows

Community

WunderPhotos

Upload Photos

1,779,332 photos uploaded!

WunderBlogs® & News

Nearby

Air Quality

  Air Quality AQ Index Pollutant
Not available.

Snow Depth

Station Depth Elevation

Earthquake Activity

City Distance Mag. Time & Date
Minimum magnitude displayed is 2.5.

Coastal Water Temperatures

Place Temperature

Nearby Weather Stations